createdAt,value
2023-02-09T00:00:29.065Z,3.33
2023-02-09T00:02:58.175Z,3.32
2023-02-09T00:05:25.957Z,3.38
2023-02-09T00:07:54.044Z,3.43
2023-02-09T00:10:21.887Z,3.44
2023-02-09T00:13:06.925Z,3.58
2023-02-09T00:15:34.737Z,3.42
2023-02-09T00:18:03.947Z,3.35
2023-02-09T00:20:31.763Z,3.54
2023-02-09T00:22:59.507Z,3.57
2023-02-09T00:25:27.304Z,3.66
2023-02-09T00:27:55.179Z,3.65
2023-02-09T00:30:22.898Z,3.24
2023-02-09T00:32:50.583Z,3.30
2023-02-09T00:35:20.453Z,3.11
2023-02-09T00:37:48.281Z,3.20
2023-02-09T00:40:16.039Z,3.16
2023-02-09T00:42:44.005Z,3.32
2023-02-09T00:45:11.738Z,3.18
2023-02-09T00:47:39.477Z,3.37
2023-02-09T00:50:08.529Z,3.08
2023-02-09T00:52:37.786Z,3.14
2023-02-09T00:55:06.187Z,3.19
2023-02-09T00:57:33.891Z,3.34
2023-02-09T01:00:01.648Z,3.17
2023-02-09T01:02:29.636Z,3.18
2023-02-09T01:04:57.434Z,2.94
2023-02-09T01:07:25.260Z,3.00
2023-02-09T01:09:54.370Z,2.92
2023-02-09T01:12:22.171Z,3.00
2023-02-09T01:14:49.936Z,3.25
2023-02-09T01:17:17.699Z,3.38
2023-02-09T01:19:45.448Z,3.54
2023-02-09T01:22:16.243Z,3.33
2023-02-09T01:24:44.023Z,3.41
2023-02-09T01:27:13.142Z,3.46
2023-02-09T01:29:40.957Z,3.29
2023-02-09T01:32:09.191Z,3.26
2023-02-09T01:34:37.207Z,3.23
2023-02-09T01:37:05.034Z,3.13
2023-02-09T01:39:33.295Z,3.15
2023-02-09T01:42:01.111Z,3.25
2023-02-09T01:45:06.323Z,3.32
2023-02-09T01:47:39.161Z,3.31
2023-02-09T01:50:07.469Z,3.61
2023-02-09T01:52:35.532Z,3.68
2023-02-09T01:55:07.535Z,3.66
2023-02-09T01:57:39.292Z,3.82
2023-02-09T02:00:11.371Z,3.98
2023-02-09T02:02:40.301Z,3.66
2023-02-09T02:05:09.554Z,3.54
2023-02-09T02:07:41.924Z,3.59
2023-02-09T02:10:10.106Z,3.16
2023-02-09T02:12:39.364Z,2.92
2023-02-09T02:15:09.512Z,2.58
2023-02-09T02:17:55.357Z,2.38
2023-02-09T02:20:50.846Z,2.59
2023-02-09T02:23:27.537Z,2.59
2023-02-09T02:26:29.792Z,2.64
2023-02-09T02:29:46.039Z,2.52
2023-02-09T02:32:31.696Z,2.07
2023-02-09T02:35:05.683Z,2.03
2023-02-09T02:37:49.720Z,1.78
2023-02-09T02:40:28.387Z,2.00
2023-02-09T02:43:02.423Z,2.26
2023-02-09T02:45:39.617Z,2.22
2023-02-09T02:48:19.753Z,2.38
2023-02-09T02:50:54.073Z,2.58
2023-02-09T02:53:26.438Z,2.60
2023-02-09T02:55:55.874Z,2.37
2023-02-09T02:58:26.836Z,2.12
2023-02-09T03:00:58.996Z,2.22
2023-02-09T03:03:33.203Z,2.27
2023-02-09T03:06:04.208Z,2.25
2023-02-09T03:08:32.075Z,2.26
2023-02-09T03:11:00.095Z,2.31
2023-02-09T03:13:40.888Z,2.28
2023-02-09T03:16:21.578Z,2.39
2023-02-09T03:19:04.836Z,2.31
2023-02-09T03:21:43.258Z,2.49
2023-02-09T03:24:20.663Z,2.48
2023-02-09T03:26:53.884Z,2.51
2023-02-09T03:29:24.616Z,2.41
2023-02-09T03:31:53.236Z,2.44
2023-02-09T03:34:22.559Z,2.31
2023-02-09T03:36:53.316Z,2.50
2023-02-09T03:39:21.101Z,2.25
2023-02-09T03:41:48.936Z,2.26
2023-02-09T03:44:28.917Z,2.23
2023-02-09T03:47:01.405Z,2.19
2023-02-09T03:49:32.833Z,2.11
2023-02-09T03:52:01.654Z,1.96
2023-02-09T03:54:30.048Z,2.01
2023-02-09T03:56:58.187Z,2.08
2023-02-09T03:59:26.905Z,1.96
2023-02-09T04:01:55.346Z,1.92
2023-02-09T04:04:24.176Z,2.08
2023-02-09T04:06:54.094Z,1.88
2023-02-09T04:09:21.878Z,2.08
2023-02-09T04:11:49.848Z,2.21
2023-02-09T04:14:18.146Z,2.42
2023-02-09T04:16:46.064Z,2.46
2023-02-09T04:19:13.864Z,2.22
2023-02-09T04:21:41.745Z,2.32
2023-02-09T04:24:11.443Z,2.23
2023-02-09T04:26:39.290Z,2.21
2023-02-09T04:29:07.132Z,2.17
2023-02-09T04:31:35.998Z,2.09
2023-02-09T04:34:03.911Z,1.97
2023-02-09T04:36:31.881Z,1.99
2023-02-09T04:38:59.609Z,2.18
2023-02-09T04:41:28.768Z,1.97
2023-02-09T04:43:56.495Z,2.07
2023-02-09T04:46:24.391Z,2.17
2023-02-09T04:48:52.281Z,2.12
2023-02-09T04:51:20.008Z,2.10
2023-02-09T04:53:47.806Z,2.14
2023-02-09T04:56:16.690Z,1.84
2023-02-09T04:59:03.285Z,1.97
2023-02-09T05:01:31.718Z,2.23
2023-02-09T05:03:59.457Z,2.02
2023-02-09T05:06:27.452Z,2.07
2023-02-09T05:08:55.164Z,2.20
2023-02-09T05:11:25.289Z,2.44
2023-02-09T05:13:54.706Z,2.46
2023-02-09T05:16:22.523Z,2.30
2023-02-09T05:18:51.088Z,2.20
2023-02-09T05:21:18.950Z,1.95
2023-02-09T05:23:46.795Z,1.81
2023-02-09T05:26:14.587Z,1.71
2023-02-09T05:28:42.324Z,1.57
2023-02-09T05:31:11.549Z,1.56
2023-02-09T05:33:39.363Z,1.52
2023-02-09T05:36:09.438Z,1.70
2023-02-09T05:38:37.697Z,1.85
2023-02-09T05:41:06.508Z,1.98
2023-02-09T05:43:34.315Z,1.79
2023-02-09T05:46:02.106Z,1.80
2023-02-09T05:48:31.377Z,1.95
2023-02-09T05:50:59.196Z,2.07
2023-02-09T05:53:26.942Z,1.75
2023-02-09T05:55:54.757Z,1.69
2023-02-09T05:58:22.505Z,1.69
2023-02-09T06:00:50.222Z,1.75
2023-02-09T06:03:18.080Z,1.62
2023-02-09T06:05:47.872Z,1.51
2023-02-09T06:08:15.833Z,1.55
2023-02-09T06:10:43.861Z,1.76
2023-02-09T06:13:11.869Z,1.79
2023-02-09T06:15:39.738Z,1.80
2023-02-09T06:18:07.509Z,2.09
2023-02-09T06:20:35.260Z,2.08
2023-02-09T06:23:04.483Z,2.02
2023-02-09T06:25:32.200Z,2.20
2023-02-09T06:27:59.971Z,2.02
2023-02-09T06:30:27.783Z,2.13
2023-02-09T06:32:55.572Z,2.10
2023-02-09T06:35:23.438Z,2.46
2023-02-09T06:37:51.145Z,2.27
2023-02-09T06:40:20.784Z,2.36
2023-02-09T06:42:48.640Z,2.47
2023-02-09T06:45:18.031Z,2.41
2023-02-09T06:47:46.961Z,2.40
2023-02-09T06:50:18.893Z,2.63
2023-02-09T06:52:47.269Z,2.57
2023-02-09T06:55:15.469Z,2.51
2023-02-09T06:57:44.558Z,2.25
2023-02-09T07:00:14.041Z,2.33
2023-02-09T07:02:43.786Z,2.22
2023-02-09T07:05:11.760Z,2.25
2023-02-09T07:07:40.138Z,2.40
2023-02-09T07:10:10.067Z,2.51
2023-02-09T07:12:40.503Z,2.58
2023-02-09T07:15:10.760Z,2.60
2023-02-09T07:17:38.635Z,2.59
2023-02-09T07:20:07.608Z,2.60
2023-02-09T07:22:35.396Z,2.84
2023-02-09T07:25:03.288Z,3.00
2023-02-09T07:27:33.309Z,2.90
2023-02-09T07:30:01.435Z,2.88
2023-02-09T07:32:30.902Z,2.66
2023-02-09T07:34:59.411Z,2.71
2023-02-09T07:37:27.143Z,2.84
2023-02-09T07:39:55.120Z,2.93
2023-02-09T07:42:23.464Z,2.88
2023-02-09T07:44:51.299Z,2.96
2023-02-09T07:47:19.073Z,3.07
2023-02-09T07:49:48.155Z,3.16
2023-02-09T07:52:15.923Z,3.12
2023-02-09T07:54:43.764Z,3.08
2023-02-09T07:57:13.600Z,3.00
2023-02-09T07:59:41.449Z,3.05
2023-02-09T08:02:19.026Z,3.30
2023-02-09T08:04:48.213Z,3.47
2023-02-09T08:07:16.061Z,3.52
2023-02-09T08:09:45.105Z,3.61
2023-02-09T08:12:13.149Z,3.76
2023-02-09T08:14:48.039Z,3.74
2023-02-09T08:17:24.241Z,3.85
2023-02-09T08:19:55.706Z,4.09
2023-02-09T08:22:26.014Z,4.24
2023-02-09T08:24:54.546Z,4.17
2023-02-09T08:27:23.244Z,4.32
2023-02-09T08:29:51.046Z,4.54
2023-02-09T08:32:18.902Z,4.60
2023-02-09T08:34:46.700Z,4.40
2023-02-09T08:37:16.041Z,4.21
2023-02-09T08:39:45.124Z,4.41
2023-02-09T08:42:12.998Z,4.53
2023-02-09T08:44:40.785Z,4.47
2023-02-09T08:47:08.633Z,4.43
2023-02-09T08:49:37.158Z,4.43
2023-02-09T08:52:05.287Z,4.48
2023-02-09T08:54:34.353Z,4.63
2023-02-09T08:57:02.660Z,4.49
2023-02-09T08:59:30.568Z,4.39
2023-02-09T09:01:58.286Z,4.31
2023-02-09T09:04:26.091Z,4.47
2023-02-09T09:06:54.857Z,4.58
2023-02-09T09:09:22.578Z,4.67
2023-02-09T09:11:51.817Z,4.76
2023-02-09T09:14:19.508Z,4.88
2023-02-09T09:16:47.376Z,4.90
2023-02-09T09:19:15.265Z,4.99
2023-02-09T09:21:43.064Z,5.13
2023-02-09T09:24:10.818Z,5.17
2023-02-09T09:26:38.584Z,5.16
2023-02-09T09:29:07.759Z,5.17
2023-02-09T09:31:37.160Z,5.12
2023-02-09T09:34:05.056Z,5.38
2023-02-09T09:36:32.811Z,5.40
2023-02-09T09:39:00.611Z,5.48
2023-02-09T09:41:32.780Z,5.59
2023-02-09T09:44:02.112Z,5.79
2023-02-09T09:46:37.867Z,5.98
2023-02-09T09:49:06.602Z,6.20
2023-02-09T09:51:40.564Z,6.35
2023-02-09T09:54:15.202Z,6.64
2023-02-09T09:56:43.079Z,6.75
2023-02-09T09:59:17.674Z,7.25
2023-02-09T10:01:48.306Z,7.61
2023-02-09T10:04:17.254Z,7.90
2023-02-09T10:06:47.358Z,8.11
2023-02-09T10:09:26.089Z,8.18
2023-02-09T10:12:02.040Z,8.28
2023-02-09T10:14:29.872Z,8.16
2023-02-09T10:16:59.093Z,8.48
2023-02-09T10:19:29.305Z,8.63
2023-02-09T10:21:57.713Z,8.78
2023-02-09T10:24:27.333Z,9.07
2023-02-09T10:27:08.689Z,9.15
2023-02-09T10:29:36.960Z,9.01
2023-02-09T10:32:14.571Z,8.99
2023-02-09T10:34:46.139Z,8.94
2023-02-09T10:37:27.369Z,8.93
2023-02-09T10:40:01.734Z,8.90
2023-02-09T10:42:31.527Z,8.96
2023-02-09T10:45:07.821Z,8.93
2023-02-09T10:47:37.036Z,8.97
2023-02-09T10:50:17.130Z,9.01
2023-02-09T10:52:56.735Z,9.03
2023-02-09T10:55:29.506Z,9.03
2023-02-09T10:58:25.905Z,9.14
2023-02-09T11:01:01.925Z,9.08
2023-02-09T11:03:31.153Z,9.23
2023-02-09T11:06:02.363Z,9.09
2023-02-09T11:08:41.360Z,9.22
2023-02-09T11:11:25.925Z,9.13
2023-02-09T11:13:54.087Z,9.11
2023-02-09T11:16:46.855Z,9.39
2023-02-09T11:19:31.320Z,9.54
2023-02-09T11:22:11.835Z,9.79
2023-02-09T11:24:53.104Z,9.52
2023-02-09T11:27:37.486Z,9.85
2023-02-09T11:30:17.455Z,10.00
2023-02-09T11:32:51.179Z,10.01
2023-02-09T11:35:23.415Z,10.27
2023-02-09T11:37:57.680Z,10.24
2023-02-09T11:40:29.583Z,10.33
2023-02-09T11:43:06.929Z,10.30
2023-02-09T11:45:40.219Z,10.52
2023-02-09T11:48:12.358Z,10.67
2023-02-09T11:50:52.703Z,10.70
2023-02-09T11:53:29.070Z,10.84
2023-02-09T11:55:59.637Z,10.86
2023-02-09T11:58:53.275Z,10.92
2023-02-09T12:01:30.866Z,10.76
2023-02-09T12:04:06.228Z,10.98
2023-02-09T12:06:40.903Z,11.31
2023-02-09T12:09:21.174Z,11.47
2023-02-09T12:11:58.720Z,11.56
2023-02-09T12:14:57.255Z,11.68
2023-02-09T12:17:31.544Z,11.84
2023-02-09T12:20:01.383Z,11.64
2023-02-09T12:22:49.184Z,11.99
2023-02-09T12:25:46.171Z,12.22
2023-02-09T12:28:38.652Z,12.11
2023-02-09T12:31:16.305Z,12.36
2023-02-09T12:34:10.429Z,12.28
2023-02-09T12:36:38.436Z,12.34
2023-02-09T12:39:24.273Z,12.34
2023-02-09T12:42:26.631Z,12.65
2023-02-09T12:45:00.574Z,12.47
2023-02-09T12:47:46.216Z,12.36
2023-02-09T12:50:24.552Z,12.48
2023-02-09T12:53:29.825Z,13.05
2023-02-09T12:56:05.248Z,13.25
2023-02-09T12:58:39.178Z,13.30
2023-02-09T13:01:07.858Z,13.26
2023-02-09T13:03:45.169Z,13.51
2023-02-09T13:06:27.567Z,13.73
2023-02-09T13:08:58.393Z,13.48
2023-02-09T13:11:33.333Z,13.03
2023-02-09T13:14:05.943Z,13.01
2023-02-09T13:16:50.851Z,12.96
2023-02-09T13:19:45.989Z,12.92
2023-02-09T13:22:27.905Z,13.03
2023-02-09T13:25:00.385Z,13.08
2023-02-09T13:27:30.575Z,12.62
2023-02-09T13:30:00.151Z,12.54
2023-02-09T13:32:36.845Z,12.72
2023-02-09T13:35:15.791Z,13.22
2023-02-09T13:37:47.662Z,13.36
2023-02-09T13:40:18.957Z,13.19
2023-02-09T13:42:57.976Z,12.85
2023-02-09T13:45:28.037Z,12.43
2023-02-09T13:47:57.161Z,12.75
2023-02-09T13:50:28.206Z,13.01
2023-02-09T13:53:08.063Z,13.09
2023-02-09T13:55:39.691Z,12.48
2023-02-09T13:58:15.323Z,12.59
2023-02-09T14:00:46.595Z,12.77
2023-02-09T14:03:19.318Z,12.87
2023-02-09T14:05:52.835Z,13.03
2023-02-09T14:08:22.273Z,12.73
2023-02-09T14:10:56.554Z,12.72
2023-02-09T14:13:30.950Z,12.82
2023-02-09T14:16:07.860Z,12.59
2023-02-09T14:18:50.732Z,12.61
2023-02-09T14:21:25.066Z,12.90
2023-02-09T14:24:21.502Z,12.94
2023-02-09T14:26:52.537Z,13.17
2023-02-09T14:29:25.201Z,13.28
2023-02-09T14:31:54.422Z,13.25
2023-02-09T14:34:37.594Z,13.24
2023-02-09T14:37:29.278Z,13.27
2023-02-09T14:40:01.006Z,13.17
2023-02-09T14:42:30.659Z,13.06
2023-02-09T14:45:02.744Z,13.01
2023-02-09T14:47:38.434Z,13.03
2023-02-09T14:50:07.835Z,13.15
2023-02-09T14:52:38.869Z,13.15
2023-02-09T14:55:12.538Z,13.25
2023-02-09T14:57:40.231Z,13.46
2023-02-09T15:00:21.939Z,13.37
2023-02-09T15:02:50.694Z,13.47
2023-02-09T15:05:19.188Z,13.47
2023-02-09T15:07:49.328Z,13.30
2023-02-09T15:10:27.788Z,13.41
2023-02-09T15:12:56.057Z,13.46
2023-02-09T15:15:26.259Z,13.39
2023-02-09T15:17:55.278Z,13.26
2023-02-09T15:20:25.403Z,12.98
2023-02-09T15:22:53.690Z,12.69
2023-02-09T15:25:22.641Z,12.49
2023-02-09T15:27:52.512Z,12.47
2023-02-09T15:30:22.528Z,12.42
2023-02-09T15:32:51.851Z,12.77
2023-02-09T15:35:21.724Z,13.01
2023-02-09T15:37:53.271Z,13.24
2023-02-09T15:40:45.013Z,13.13
2023-02-09T15:43:29.259Z,13.10
2023-02-09T15:46:14.931Z,13.21
2023-02-09T15:48:44.488Z,12.83
2023-02-09T15:51:12.407Z,12.83
2023-02-09T15:53:40.474Z,13.03
2023-02-09T15:56:09.204Z,12.58
2023-02-09T15:58:40.319Z,12.33
2023-02-09T16:01:08.036Z,12.65
2023-02-09T16:03:36.095Z,12.60
2023-02-09T16:06:12.809Z,12.88
2023-02-09T16:08:40.635Z,12.82
2023-02-09T16:11:17.729Z,12.84
2023-02-09T16:13:45.489Z,12.78
2023-02-09T16:16:17.271Z,12.78
2023-02-09T16:18:45.909Z,12.67
2023-02-09T16:21:21.028Z,12.62
2023-02-09T16:23:49.078Z,12.61
2023-02-09T16:26:16.921Z,12.59
2023-02-09T16:28:44.627Z,12.70
2023-02-09T16:31:12.393Z,12.76
2023-02-09T16:33:41.644Z,12.74
2023-02-09T16:36:17.016Z,12.73
2023-02-09T16:38:44.830Z,12.68
2023-02-09T16:41:39.711Z,12.58
2023-02-09T16:44:16.909Z,12.50
2023-02-09T16:46:46.950Z,12.46
2023-02-09T16:49:30.789Z,12.42
2023-02-09T16:52:02.238Z,12.39
2023-02-09T16:54:32.020Z,12.38
2023-02-09T16:57:00.856Z,12.34
2023-02-09T16:59:28.912Z,12.35
2023-02-09T17:01:59.796Z,12.34
2023-02-09T17:04:27.775Z,12.33
2023-02-09T17:06:55.875Z,12.26
2023-02-09T17:09:24.957Z,12.23
2023-02-09T17:11:52.704Z,12.20
2023-02-09T17:14:20.463Z,12.13
2023-02-09T17:16:49.662Z,12.06
2023-02-09T17:19:19.094Z,12.03
2023-02-09T17:21:46.931Z,11.99
2023-02-09T17:24:17.460Z,11.91
2023-02-09T17:26:46.700Z,11.85
2023-02-09T17:29:14.501Z,11.81
2023-02-09T17:31:52.951Z,11.80
2023-02-09T17:34:26.896Z,11.78
2023-02-09T17:36:54.766Z,11.75
2023-02-09T17:39:22.465Z,11.71
2023-02-09T17:41:51.710Z,11.70
2023-02-09T17:44:32.105Z,11.72
2023-02-09T17:47:07.358Z,11.68
2023-02-09T17:49:35.229Z,11.74
2023-02-09T17:52:03.021Z,11.74
2023-02-09T17:54:32.498Z,11.76
2023-02-09T17:57:01.641Z,11.77
2023-02-09T17:59:29.557Z,11.71
2023-02-09T18:01:58.799Z,11.63
2023-02-09T18:04:27.259Z,11.67
2023-02-09T18:06:57.670Z,11.64
2023-02-09T18:09:25.639Z,11.62
2023-02-09T18:11:59.748Z,11.66
2023-02-09T18:14:30.421Z,11.70
2023-02-09T18:16:58.480Z,11.68
2023-02-09T18:19:26.883Z,11.69
2023-02-09T18:21:58.679Z,11.60
2023-02-09T18:24:28.373Z,11.47
2023-02-09T18:26:56.884Z,11.35
2023-02-09T18:29:29.089Z,11.29
2023-02-09T18:31:59.953Z,11.28
2023-02-09T18:34:28.118Z,11.29
2023-02-09T18:36:56.004Z,11.29
2023-02-09T18:39:23.732Z,11.32
2023-02-09T18:41:54.214Z,11.35
2023-02-09T18:44:24.544Z,11.40
2023-02-09T18:46:52.380Z,11.48
2023-02-09T18:49:21.636Z,11.53
2023-02-09T18:51:49.734Z,11.51
2023-02-09T18:54:17.429Z,11.51
2023-02-09T18:56:45.244Z,11.47
2023-02-09T18:59:13.066Z,11.46
2023-02-09T19:01:41.123Z,11.43
2023-02-09T19:04:09.024Z,11.38
2023-02-09T19:06:38.694Z,11.36
2023-02-09T19:09:06.460Z,11.29
2023-02-09T19:11:34.398Z,11.31
2023-02-09T19:14:20.003Z,11.32
2023-02-09T19:16:47.853Z,11.22
2023-02-09T19:19:16.095Z,11.11
2023-02-09T19:21:45.185Z,11.07
2023-02-09T19:24:13.336Z,10.90
2023-02-09T19:26:41.083Z,10.63
2023-02-09T19:29:08.855Z,10.77
2023-02-09T19:31:36.637Z,10.77
2023-02-09T19:34:04.474Z,10.91
2023-02-09T19:36:32.289Z,11.01
2023-02-09T19:39:02.151Z,11.10
2023-02-09T19:41:30.152Z,11.08
2023-02-09T19:43:58.844Z,10.91
2023-02-09T19:46:27.052Z,10.90
2023-02-09T19:48:54.840Z,10.80
2023-02-09T19:51:23.187Z,10.88
2023-02-09T19:53:51.307Z,10.91
2023-02-09T19:56:23.292Z,10.88
2023-02-09T19:58:51.781Z,10.88
2023-02-09T20:01:20.042Z,10.87
2023-02-09T20:03:49.421Z,10.96
2023-02-09T20:06:17.807Z,10.99
2023-02-09T20:08:45.625Z,10.98
2023-02-09T20:11:16.656Z,10.94
2023-02-09T20:13:46.240Z,10.92
2023-02-09T20:16:19.580Z,10.81
2023-02-09T20:18:48.701Z,10.71
2023-02-09T20:21:17.997Z,10.70
2023-02-09T20:23:46.804Z,10.84
2023-02-09T20:26:16.446Z,10.83
2023-02-09T20:28:45.648Z,10.63
2023-02-09T20:31:15.658Z,10.70
2023-02-09T20:33:43.713Z,10.73
2023-02-09T20:36:11.607Z,10.27
2023-02-09T20:38:39.458Z,10.14
2023-02-09T20:41:09.402Z,10.49
2023-02-09T20:43:55.211Z,10.57
2023-02-09T20:46:55.497Z,10.64
2023-02-09T20:49:25.765Z,10.53
2023-02-09T20:51:53.636Z,10.57
2023-02-09T20:54:21.467Z,10.59
2023-02-09T20:56:49.261Z,10.62
2023-02-09T20:59:17.533Z,10.53
2023-02-09T21:01:47.926Z,10.35
2023-02-09T21:04:15.694Z,10.48
2023-02-09T21:06:43.768Z,10.59
2023-02-09T21:09:14.289Z,10.62
2023-02-09T21:11:42.845Z,10.63
2023-02-09T21:14:21.738Z,10.68
2023-02-09T21:16:57.308Z,10.74
2023-02-09T21:19:25.945Z,10.32
2023-02-09T21:21:53.846Z,10.29
2023-02-09T21:24:21.707Z,10.43
2023-02-09T21:26:49.623Z,10.44
2023-02-09T21:29:17.376Z,10.46
2023-02-09T21:31:45.823Z,10.27
2023-02-09T21:34:16.089Z,10.22
2023-02-09T21:36:45.576Z,10.32
2023-02-09T21:39:13.893Z,10.36
2023-02-09T21:41:59.461Z,10.32
2023-02-09T21:44:27.340Z,10.37
2023-02-09T21:46:55.114Z,10.48
2023-02-09T21:49:24.682Z,10.48
2023-02-09T21:51:52.527Z,10.55
2023-02-09T21:54:20.244Z,10.48
2023-02-09T21:56:48.073Z,10.47
2023-02-09T21:59:15.832Z,10.57
2023-02-09T22:01:43.748Z,10.64
2023-02-09T22:04:11.896Z,10.63
2023-02-09T22:06:41.687Z,10.64
2023-02-09T22:09:09.638Z,10.63
2023-02-09T22:11:37.430Z,10.59
2023-02-09T22:14:05.404Z,10.54
2023-02-09T22:16:33.382Z,10.46
2023-02-09T22:19:01.290Z,10.28
2023-02-09T22:21:29.079Z,10.22
2023-02-09T22:23:58.266Z,10.26
2023-02-09T22:26:26.024Z,10.32
2023-02-09T22:28:53.747Z,10.27
2023-02-09T22:31:22.621Z,10.27
2023-02-09T22:33:54.256Z,10.34
2023-02-09T22:36:23.304Z,10.36
2023-02-09T22:38:51.540Z,10.36
2023-02-09T22:41:23.248Z,10.28
2023-02-09T22:43:52.271Z,10.33
2023-02-09T22:46:20.963Z,10.42
2023-02-09T22:48:52.342Z,10.53
2023-02-09T22:51:20.833Z,10.51
2023-02-09T22:53:49.248Z,10.56
2023-02-09T22:56:17.592Z,10.54
2023-02-09T22:58:46.730Z,10.42
2023-02-09T23:01:14.756Z,10.33
2023-02-09T23:03:42.857Z,10.26
2023-02-09T23:06:13.814Z,10.21
2023-02-09T23:08:41.597Z,10.19
2023-02-09T23:11:11.570Z,10.22
2023-02-09T23:13:40.130Z,10.21
2023-02-09T23:16:15.192Z,10.27
2023-02-09T23:18:48.208Z,10.27
2023-02-09T23:21:17.783Z,10.21
2023-02-09T23:23:45.774Z,10.14
2023-02-09T23:26:14.596Z,10.14
2023-02-09T23:28:42.557Z,10.24
2023-02-09T23:31:14.860Z,10.34
2023-02-09T23:33:43.004Z,10.36
2023-02-09T23:36:12.865Z,10.40
2023-02-09T23:38:40.930Z,10.37
2023-02-09T23:41:09.718Z,10.44
2023-02-09T23:43:37.958Z,10.29
2023-02-09T23:46:08.901Z,10.09
2023-02-09T23:48:38.092Z,10.06
2023-02-09T23:51:07.822Z,10.04
2023-02-09T23:53:36.559Z,10.03
2023-02-09T23:56:04.892Z,10.07
2023-02-09T23:58:32.928Z,10.11
